Time;durP1;ratioP1;P1;durP2;ratioP2;P2;SDS_P1;SDS_P2;PMS_P1;PMS_P2;Temp;Humidity;BMP_temperature;BMP_pressure;BME280_temperature;BME280_humidity;BME280_pressure;Samples;Min_cycle;Max_cycle;Signal;HPM_P1;HPM_P2
2023/03/05 00:00:45;;;;;;;38.30;25.40;;;;;;;3.49;76.76;99724.08;106326;1254;61303;-83
2023/03/05 00:03:11;;;;;;;40.20;24.10;;;;;;;3.48;76.69;99723.95;107170;1254;73237;-83
2023/03/05 00:05:39;;;;;;;42.80;25.70;;;;;;;3.46;76.43;99725.45;108568;1256;64391;-83
2023/03/05 00:08:06;;;;;;;40.00;24.70;;;;;;;3.43;76.31;99724.85;106592;1260;72639;-84
2023/03/05 00:10:35;;;;;;;39.30;25.80;;;;;;;3.41;76.15;99724.63;107674;1254;62153;-84
2023/03/05 00:13:03;;;;;;;33.70;23.00;;;;;;;3.37;76.22;99721.01;108694;1255;59949;-84
2023/03/05 00:15:30;;;;;;;41.20;24.30;;;;;;;3.34;76.15;99721.14;108599;1254;73375;-84
2023/03/05 00:18:02;;;;;;;39.80;25.80;;;;;;;3.29;76.13;99712.69;107336;1257;63661;-84
2023/03/05 00:20:29;;;;;;;36.50;23.40;;;;;;;3.25;75.77;99708.89;107169;1254;73100;-81
2023/03/05 00:22:56;;;;;;;38.10;23.70;;;;;;;3.21;75.36;99709.10;106802;1255;59644;-84
2023/03/05 00:25:22;;;;;;;41.60;24.80;;;;;;;3.16;75.01;99711.05;106062;1254;61046;-85
2023/03/05 00:27:49;;;;;;;38.20;24.00;;;;;;;3.12;74.87;99721.05;106060;1254;72809;-85
2023/03/05 00:30:20;;;;;;;40.80;24.00;;;;;;;3.07;74.70;99717.45;105906;1254;64712;-84
2023/03/05 00:32:49;;;;;;;35.20;22.40;;;;;;;3.02;74.46;99726.50;106025;1260;73364;-85
2023/03/05 00:35:17;;;;;;;35.90;22.90;;;;;;;2.97;74.44;99732.23;106090;1258;62283;-83
2023/03/05 00:37:45;;;;;;;37.30;23.50;;;;;;;2.92;74.33;99736.77;106017;1256;61375;-85
2023/03/05 00:40:13;;;;;;;38.40;22.90;;;;;;;2.89;74.37;99738.79;106091;1258;74006;-83
2023/03/05 00:42:49;;;;;;;38.10;22.20;;;;;;;2.90;74.34;99741.00;106001;1257;64733;-84
2023/03/05 00:45:17;;;;;;;42.90;23.60;;;;;;;2.92;74.11;99743.52;106029;1259;74110;-84
2023/03/05 00:47:44;;;;;;;41.80;24.40;;;;;;;2.95;73.90;99743.03;107525;1256;60277;-84
2023/03/05 00:50:11;;;;;;;41.50;23.60;;;;;;;3.00;73.74;99746.44;106671;1257;59749;-83
2023/03/05 00:52:38;;;;;;;36.60;22.10;;;;;;;3.05;73.69;99755.23;105868;1255;74254;-85
2023/03/05 00:55:06;;;;;;;39.40;24.00;;;;;;;3.09;73.35;99756.39;105839;1257;63623;-84
2023/03/05 00:57:34;;;;;;;41.40;24.30;;;;;;;3.13;73.15;99754.70;106849;1254;73624;-83
2023/03/05 01:00:01;;;;;;;39.50;23.80;;;;;;;3.15;72.77;99757.21;107122;1255;59760;-85
2023/03/05 01:02:28;;;;;;;43.00;24.10;;;;;;;3.16;72.60;99755.26;105939;1257;59988;-86
2023/03/05 01:04:57;;;;;;;40.00;23.40;;;;;;;3.16;72.40;99749.37;105788;1257;73860;-85
2023/03/05 01:07:24;;;;;;;43.70;24.70;;;;;;;3.16;72.15;99752.15;105834;1255;63211;-85
2023/03/05 01:09:51;;;;;;;43.40;24.40;;;;;;;3.15;72.06;99750.63;105748;1260;73706;-85
2023/03/05 01:12:24;;;;;;;40.30;23.30;;;;;;;3.14;72.03;99760.88;105842;1254;60254;-86
2023/03/05 01:14:52;;;;;;;37.40;22.50;;;;;;;3.13;71.93;99765.73;106076;1253;61333;-84
2023/03/05 01:17:19;;;;;;;37.70;22.10;;;;;;;3.14;71.55;99765.20;106395;1253;73050;-87
2023/03/05 01:19:50;;;;;;;36.40;22.90;;;;;;;3.14;71.35;99762.27;106286;1251;63871;-83
2023/03/05 01:22:17;;;;;;;40.60;23.00;;;;;;;3.11;70.97;99761.66;106252;1253;73684;-84
2023/03/05 01:24:45;;;;;;;41.90;23.10;;;;;;;3.09;70.93;99769.52;106351;1256;60428;-85
2023/03/05 01:27:12;;;;;;;39.30;23.20;;;;;;;3.07;70.54;99767.20;107288;1252;59646;-83
2023/03/05 01:29:39;;;;;;;42.00;20.40;;;;;;;3.02;70.26;99762.59;107130;1251;73011;-84
2023/03/05 01:32:05;;;;;;;40.30;25.10;;;;;;;2.95;70.09;99760.63;106922;1252;63602;-86
2023/03/05 01:34:34;;;;;;;41.40;22.50;;;;;;;2.89;69.83;99762.45;106228;1253;73424;-85
2023/03/05 01:37:02;;;;;;;39.00;22.10;;;;;;;2.81;69.85;99759.81;106407;1253;60527;-84
2023/03/05 01:39:29;;;;;;;36.50;22.00;;;;;;;2.73;70.12;99767.78;106214;1253;60838;-85
2023/03/05 01:41:56;;;;;;;41.00;23.30;;;;;;;2.64;70.13;99771.60;106253;1256;74099;-84
2023/03/05 01:44:25;;;;;;;40.80;22.80;;;;;;;2.56;70.17;99777.27;107607;1251;64476;-83
2023/03/05 01:46:52;;;;;;;38.90;21.80;;;;;;;2.50;70.28;99777.33;109682;1251;72553;-84
2023/03/05 01:49:33;;;;;;;40.60;22.10;;;;;;;2.46;70.41;99781.64;109538;1251;61148;-84
2023/03/05 01:52:00;;;;;;;32.40;19.40;;;;;;;2.43;70.60;99780.03;109456;1251;60281;-84
2023/03/05 01:54:38;;;;;;;36.20;21.50;;;;;;;2.41;70.53;99787.86;107455;1253;71906;-85
2023/03/05 01:57:10;;;;;;;;;;;;;;;2.40;70.59;99797.07;106210;1259;64684;-84
2023/03/05 01:59:39;;;;;;;38.70;20.40;;;;;;;2.39;70.44;99797.29;106234;1253;73636;-84
2023/03/05 02:02:07;;;;;;;38.60;22.00;;;;;;;2.38;70.35;99796.80;106176;1256;60981;-84
2023/03/05 02:04:40;;;;;;;36.00;20.00;;;;;;;2.35;70.22;99799.34;105986;1255;60109;-86
2023/03/05 02:07:07;;;;;;;41.00;22.90;;;;;;;2.30;70.14;99800.37;106047;1255;72739;-85
2023/03/05 02:09:37;;;;;;;32.60;20.60;;;;;;;2.24;70.25;99806.45;106125;1256;65442;-85
2023/03/05 02:12:06;;;;;;;34.40;19.90;;;;;;;2.19;70.26;99814.41;106133;1253;72811;-84
2023/03/05 02:14:34;;;;;;;37.10;20.90;;;;;;;2.15;70.30;99817.87;106128;1251;59731;-87
2023/03/05 02:17:01;;;;;;;34.60;20.30;;;;;;;2.09;70.49;99820.85;106069;1253;60368;-83
2023/03/05 02:19:28;;;;;;;37.10;20.60;;;;;;;2.04;70.41;99826.38;106102;1253;73624;-86
2023/03/05 02:21:55;;;;;;;36.80;19.30;;;;;;;2.01;70.70;99824.42;106198;1256;65294;-85
2023/03/05 02:24:35;;;;;;;36.90;20.80;;;;;;;1.99;70.65;99825.55;106084;1255;73546;-84
2023/03/05 02:27:03;;;;;;;36.10;21.10;;;;;;;1.99;70.76;99825.54;106101;1256;59636;-85
2023/03/05 02:29:30;;;;;;;42.90;21.10;;;;;;;2.00;70.83;99828.09;106075;1256;61215;-86
2023/03/05 02:31:58;;;;;;;40.40;20.50;;;;;;;2.02;70.74;99835.93;106044;1253;73019;-84
2023/03/05 02:34:25;;;;;;;39.70;20.70;;;;;;;2.02;70.62;99836.64;106012;1260;62924;-85
2023/03/05 02:36:54;;;;;;;38.10;21.70;;;;;;;2.00;70.61;99840.30;105875;1259;73304;-85
2023/03/05 02:39:21;;;;;;;34.80;19.90;;;;;;;1.99;70.52;99834.31;106739;1256;59731;-83
2023/03/05 02:41:49;;;;;;;40.00;22.30;;;;;;;1.98;70.51;99838.50;106849;1253;60335;-86
2023/03/05 02:44:16;;;;;;;35.40;21.20;;;;;;;1.96;70.57;99842.02;106035;1255;73716;-85
2023/03/05 02:46:42;;;;;;;36.90;20.90;;;;;;;1.93;70.73;99843.15;106043;1257;64845;-86
2023/03/05 02:49:09;;;;;;;33.80;19.00;;;;;;;1.91;70.56;99843.94;106161;1255;72370;-86
2023/03/05 02:51:37;;;;;;;37.50;20.50;;;;;;;1.88;70.70;99845.41;106250;1255;61855;-86
2023/03/05 02:54:04;;;;;;;33.40;18.80;;;;;;;1.85;70.75;99843.29;106234;1251;60047;-86
2023/03/05 02:56:33;;;;;;;34.30;20.60;;;;;;;1.81;70.87;99839.46;105957;1251;72960;-85
2023/03/05 02:59:02;;;;;;;38.50;21.80;;;;;;;1.79;71.10;99839.73;106209;1256;62970;-86
2023/03/05 03:01:31;;;;;;;35.20;21.00;;;;;;;1.77;71.05;99835.81;106317;1253;73545;-85
2023/03/05 03:03:58;;;;;;;39.40;21.80;;;;;;;1.79;71.18;99836.28;107852;1251;61152;-86
2023/03/05 03:06:25;;;;;;;35.70;20.70;;;;;;;1.81;71.09;99837.41;106813;1254;61006;-85
2023/03/05 03:08:53;;;;;;;35.20;20.10;;;;;;;1.82;71.09;99839.94;106528;1255;75081;-82
2023/03/05 03:11:21;;;;;;;33.50;20.20;;;;;;;1.81;70.80;99842.91;107124;1251;63802;-84
2023/03/05 03:13:48;;;;;;;33.60;20.40;;;;;;;1.78;70.92;99839.93;108173;1254;73771;-84
2023/03/05 03:16:18;;;;;;;35.10;19.10;;;;;;;1.76;70.87;99844.50;109351;1251;59260;-82
2023/03/05 03:18:48;;;;;;;33.90;20.00;;;;;;;1.73;70.79;99846.13;107757;1255;60104;-87
2023/03/05 03:21:17;;;;;;;35.70;20.10;;;;;;;1.70;70.74;99851.08;106380;1251;73845;-83
2023/03/05 03:23:44;;;;;;;37.00;20.90;;;;;;;1.66;70.85;99848.08;106440;1255;64570;-87
2023/03/05 03:26:11;;;;;;;34.20;18.40;;;;;;;1.64;70.93;99852.82;106312;1253;73619;-86
2023/03/05 03:28:39;;;;;;;34.60;19.00;;;;;;;1.62;70.98;99855.80;106295;1251;62822;-83
2023/03/05 03:31:05;;;;;;;38.20;19.60;;;;;;;1.61;71.24;99856.03;106245;1256;61085;-85
2023/03/05 03:33:33;;;;;;;30.00;18.10;;;;;;;1.60;71.21;99859.85;106218;1251;74256;-84
2023/03/05 03:36:00;;;;;;;34.40;18.00;;;;;;;1.60;71.28;99861.92;106277;1251;64690;-86
2023/03/05 03:38:30;;;;;;;39.50;19.70;;;;;;;1.60;71.20;99865.03;106272;1255;73510;-83
2023/03/05 03:41:00;;;;;;;34.20;17.60;;;;;;;1.58;71.13;99864.41;107641;1251;59634;-83
2023/03/05 03:43:30;;;;;;;33.60;18.80;;;;;;;1.56;71.01;99858.11;107677;1251;61687;-84
2023/03/05 03:45:56;;;;;;;33.00;18.70;;;;;;;1.53;70.75;99860.45;109340;1251;72968;-83
2023/03/05 03:48:24;;;;;;;37.90;20.90;;;;;;;1.50;70.68;99855.59;107497;1251;64589;-85
2023/03/05 03:50:50;;;;;;;39.40;20.70;;;;;;;1.44;70.79;99855.23;106229;1256;72397;-84
2023/03/05 03:53:17;;;;;;;37.60;21.20;;;;;;;1.39;70.80;99851.45;106041;1253;61280;-85
2023/03/05 03:55:45;;;;;;;32.40;18.20;;;;;;;1.35;70.95;99854.36;105987;1256;60951;-89
2023/03/05 03:58:14;;;;;;;36.60;19.90;;;;;;;1.30;71.07;99850.08;105976;1258;74728;-86
2023/03/05 04:00:41;;;;;;;32.80;20.10;;;;;;;1.28;71.64;99848.56;105898;1257;64826;-87
2023/03/05 04:03:12;;;;;;;34.70;18.00;;;;;;;1.26;71.61;99845.90;105883;1256;73831;-85
2023/03/05 04:05:40;;;;;;;34.80;19.40;;;;;;;1.24;71.70;99847.34;105925;1255;60520;-85
2023/03/05 04:08:10;;;;;;;33.80;18.10;;;;;;;1.22;71.80;99848.23;105986;1256;60530;-87
2023/03/05 04:10:38;;;;;;;33.90;18.60;;;;;;;1.20;71.96;99854.86;106000;1253;74714;-88
2023/03/05 04:13:05;;;;;;;31.40;17.30;;;;;;;1.18;71.97;99855.63;105997;1251;64270;-84
2023/03/05 04:15:35;;;;;;;34.80;18.40;;;;;;;1.14;72.12;99852.85;106027;1256;73712;-83
2023/03/05 04:18:02;;;;;;;33.30;18.20;;;;;;;1.09;72.34;99853.52;106207;1255;60415;-86
2023/03/05 04:20:28;;;;;;;28.50;16.10;;;;;;;1.04;72.60;99856.80;106231;1256;61441;-86
2023/03/05 04:22:56;;;;;;;37.60;19.80;;;;;;;0.98;72.79;99862.64;106174;1256;74875;-86
2023/03/05 04:25:26;;;;;;;31.50;17.80;;;;;;;0.94;73.10;99869.15;106145;1255;65199;-85
2023/03/05 04:27:54;;;;;;;30.40;17.60;;;;;;;0.92;73.34;99877.30;106055;1257;72922;-86
2023/03/05 04:30:42;;;;;;;32.20;17.50;;;;;;;0.95;73.71;99876.88;106067;1257;62612;-88
2023/03/05 04:33:14;;;;;;;36.70;19.50;;;;;;;0.99;73.79;99878.63;106176;1251;60519;-84
2023/03/05 04:35:42;;;;;;;32.80;18.00;;;;;;;1.04;73.84;99880.88;107319;1251;73773;-82
2023/03/05 04:38:09;;;;;;;32.20;18.10;;;;;;;1.10;73.81;99884.65;106382;1256;64822;-86
2023/03/05 04:41:42;;;;;;;37.20;21.40;;;;;;;1.18;73.80;99887.30;102936;1292;602470;-84
2023/03/05 04:44:14;;;;;;;34.50;17.80;;;;;;;1.19;73.52;99893.48;105690;1257;59520;-85
2023/03/05 04:46:44;;;;;;;30.10;17.90;;;;;;;1.20;73.20;99894.98;105585;1257;61398;-86
2023/03/05 04:49:12;;;;;;;27.90;16.10;;;;;;;1.20;73.27;99901.02;105591;1257;72457;-85
2023/03/05 04:51:42;;;;;;;37.70;19.70;;;;;;;1.20;73.40;99900.83;105707;1262;65212;-86
2023/03/05 04:54:10;;;;;;;29.40;18.60;;;;;;;1.20;73.32;99908.75;105710;1257;729830;-85
2023/03/05 04:56:39;;;;;;;29.40;17.80;;;;;;;1.21;73.29;99907.69;109431;1255;61276;-85
2023/03/05 04:59:07;;;;;;;28.50;17.40;;;;;;;1.25;73.45;99909.80;109278;1257;59950;-85
2023/03/05 05:01:38;;;;;;;33.70;17.50;;;;;;;1.31;73.21;99913.06;107378;1254;72109;-85
2023/03/05 05:04:06;;;;;;;31.30;16.10;;;;;;;1.36;73.50;99914.10;108618;1254;63808;-85
2023/03/05 05:06:44;;;;;;;32.70;17.10;;;;;;;1.40;73.17;99919.10;106417;1258;72985;-87
2023/03/05 05:09:12;;;;;;;26.40;15.60;;;;;;;1.44;73.08;99921.71;106136;1260;59644;-84
2023/03/05 05:11:40;;;;;;;27.70;16.70;;;;;;;1.48;72.46;99929.36;106029;1254;60622;-84
2023/03/05 05:14:15;;;;;;;29.50;15.80;;;;;;;1.51;72.58;99929.77;106369;1251;74024;-85
2023/03/05 05:16:43;;;;;;;27.70;16.10;;;;;;;1.66;72.82;99937.36;106423;1253;64838;-85
2023/03/05 05:19:12;;;;;;;33.70;18.80;;;;;;;2.02;72.70;99942.83;107924;1253;72622;-84
2023/03/05 05:21:41;;;;;;;37.00;17.90;;;;;;;2.54;72.10;99946.27;107506;1253;60818;-86
2023/03/05 05:24:09;;;;;;;26.70;16.00;;;;;;;3.01;70.82;99947.37;106279;1251;59819;-86
2023/03/05 05:26:40;;;;;;;25.20;15.10;;;;;;;3.42;69.39;99953.69;106249;1251;74107;-86
2023/03/05 05:29:09;;;;;;;23.50;13.80;;;;;;;3.78;68.01;99956.15;106841;1253;65199;-85
2023/03/05 05:31:37;;;;;;;29.10;16.60;;;;;;;4.01;66.35;99960.34;107201;1253;72666;-85
2023/03/05 05:34:06;;;;;;;20.80;13.70;;;;;;;4.22;65.55;99963.39;106358;1253;60281;-86
2023/03/05 05:36:35;;;;;;;20.90;12.30;;;;;;;4.53;64.54;99967.53;106237;1251;61480;-85
2023/03/05 05:39:03;;;;;;;24.40;13.70;;;;;;;4.92;63.35;99967.48;106180;1253;72332;-88
2023/03/05 05:41:32;;;;;;;21.30;13.20;;;;;;;5.27;62.03;99972.41;106006;1256;64895;-85
2023/03/05 05:44:00;;;;;;;29.10;14.80;;;;;;;5.65;60.84;99972.08;105966;1251;73664;-88
2023/03/05 05:46:28;;;;;;;29.40;15.10;;;;;;;6.06;59.43;99973.85;106103;1256;60385;-86
2023/03/05 05:48:57;;;;;;;21.90;14.30;;;;;;;6.45;57.84;99982.23;106163;1250;61188;-88
2023/03/05 05:51:25;;;;;;;25.60;14.40;;;;;;;6.85;56.40;99983.20;106271;1253;72977;-86
2023/03/05 05:53:54;;;;;;;22.40;14.40;;;;;;;7.23;55.06;99985.80;106132;1253;64818;-87
2023/03/05 05:56:23;;;;;;;24.50;15.20;;;;;;;7.46;53.94;99987.80;106102;1254;73806;-86
2023/03/05 05:58:51;;;;;;;21.30;13.60;;;;;;;7.64;53.25;99989.86;106190;1251;59680;-88
2023/03/05 06:01:29;;;;;;;25.70;14.20;;;;;;;7.97;52.95;99987.80;107404;1253;60720;-84
2023/03/05 06:03:57;;;;;;;20.80;14.70;;;;;;;8.42;52.01;99990.48;107731;1250;73985;-85
2023/03/05 06:06:30;;;;;;;23.30;14.30;;;;;;;8.90;50.65;99996.20;107434;1256;65698;-87
2023/03/05 06:08:58;;;;;;;28.10;16.80;;;;;;;9.36;48.80;99995.22;106654;1251;72430;-87
2023/03/05 06:11:27;;;;;;;22.30;15.70;;;;;;;9.62;47.88;99996.17;106288;1251;60391;-87
2023/03/05 06:13:55;;;;;;;22.40;14.10;;;;;;;9.83;47.14;99997.53;106121;1252;61561;-86
2023/03/05 06:16:24;;;;;;;19.30;12.00;;;;;;;10.01;45.55;100000.36;106264;1256;73881;-88
2023/03/05 06:18:53;;;;;;;12.20;8.50;;;;;;;10.09;43.65;100002.27;106440;1250;63742;-88
2023/03/05 06:21:21;;;;;;;15.20;10.50;;;;;;;10.11;42.36;100006.62;106465;1251;73269;-86
2023/03/05 06:23:50;;;;;;;12.70;8.30;;;;;;;10.29;42.01;100011.05;106571;1251;60188;-85
2023/03/05 06:26:23;;;;;;;13.50;7.40;;;;;;;10.67;41.12;100017.16;106437;1250;61212;-87
2023/03/05 06:28:53;;;;;;;11.70;6.60;;;;;;;11.00;38.93;100017.14;106730;1251;74012;-89
2023/03/05 06:31:26;;;;;;;8.10;5.10;;;;;;;11.05;38.83;100018.67;106813;1250;63807;-87
2023/03/05 06:33:56;;;;;;;5.60;4.00;;;;;;;11.28;38.37;100014.00;106496;1251;72820;-90
2023/03/05 06:36:26;;;;;;;5.50;4.00;;;;;;;11.77;37.29;100021.86;106677;1253;61958;-87
2023/03/05 06:38:55;;;;;;;4.80;3.40;;;;;;;12.25;35.98;100020.17;106406;1251;61521;-89
2023/03/05 06:41:26;;;;;;;3.90;2.30;;;;;;;12.56;34.79;100015.83;106685;1251;72980;-88
2023/03/05 06:43:56;;;;;;;2.90;1.90;;;;;;;12.91;34.10;100027.00;106733;1251;65333;-90
2023/03/05 06:46:26;;;;;;;3.20;1.90;;;;;;;13.36;32.89;100025.42;106329;1251;73674;-88
2023/03/05 06:48:59;;;;;;;2.30;1.30;;;;;;;13.67;31.75;100029.60;106418;1256;61368;-89
2023/03/05 06:51:34;;;;;;;2.70;1.80;;;;;;;13.79;30.63;100029.20;106423;1251;61331;-87
2023/03/05 06:54:05;;;;;;;3.70;1.50;;;;;;;13.66;31.17;100026.00;106303;1253;74178;-90
2023/03/05 06:56:36;;;;;;;2.50;1.60;;;;;;;13.38;31.22;100024.96;106306;1250;62614;-90
2023/03/05 06:59:04;;;;;;;4.70;1.00;;;;;;;12.82;31.45;100034.48;106507;1251;72583;-88
2023/03/05 07:01:34;;;;;;;2.80;1.30;;;;;;;12.20;31.82;100040.35;106420;1253;61616;-87
2023/03/05 07:04:04;;;;;;;6.30;1.20;;;;;;;11.52;31.94;100034.88;106373;1251;61521;-88
2023/03/05 07:06:34;;;;;;;3.30;1.10;;;;;;;10.75;32.26;100037.95;106514;1249;74173;-88
2023/03/05 07:09:03;;;;;;;2.10;1.10;;;;;;;9.89;32.78;100037.67;106720;1250;63813;-88
2023/03/05 07:11:33;;;;;;;1.40;0.90;;;;;;;9.09;33.96;100044.02;106428;1252;72151;-86
2023/03/05 07:14:01;;;;;;;2.00;0.80;;;;;;;8.44;34.64;100043.16;106655;1256;60782;-88
2023/03/05 07:16:31;;;;;;;2.10;0.90;;;;;;;7.93;35.41;100041.45;106437;1251;60613;-89
2023/03/05 07:19:04;;;;;;;2.20;1.40;;;;;;;7.58;36.28;100046.08;107161;1250;72780;-86
2023/03/05 07:21:33;;;;;;;2.30;0.90;;;;;;;7.32;36.52;100046.46;106496;1251;63892;-88
2023/03/05 07:24:03;;;;;;;3.60;1.80;;;;;;;7.14;36.83;100050.81;106451;1256;73309;-90
2023/03/05 07:26:33;;;;;;;2.10;1.00;;;;;;;7.33;36.31;100053.23;108799;1251;60263;-86
2023/03/05 07:29:02;;;;;;;2.10;1.20;;;;;;;7.91;35.66;100054.06;106570;1251;60199;-90
2023/03/05 07:31:31;;;;;;;2.70;1.60;;;;;;;8.70;35.11;100054.30;106446;1256;73786;-87
2023/03/05 07:34:01;;;;;;;1.00;0.80;;;;;;;9.53;33.84;100052.02;107408;1250;64324;-87
2023/03/05 07:36:33;;;;;;;1.60;1.00;;;;;;;10.20;32.48;100050.63;107409;1249;72599;-86
2023/03/05 07:39:04;;;;;;;4.00;0.80;;;;;;;10.69;31.75;100053.70;107083;1253;61393;-88
2023/03/05 07:41:33;;;;;;;1.20;1.00;;;;;;;11.22;31.77;100046.84;107938;1250;60225;-88
2023/03/05 07:44:03;;;;;;;1.80;1.40;;;;;;;11.91;31.07;100052.17;108346;1251;72581;-87
2023/03/05 07:46:32;;;;;;;5.10;2.00;;;;;;;12.58;30.53;100048.14;107427;1251;63506;-86
2023/03/05 07:49:02;;;;;;;3.80;1.40;;;;;;;13.12;29.73;100052.48;107062;1249;73197;-89
2023/03/05 07:51:30;;;;;;;1.60;1.20;;;;;;;13.56;28.69;100056.00;106435;1250;61240;-86
2023/03/05 07:54:03;;;;;;;4.70;2.30;;;;;;;13.93;28.44;100056.98;106378;1251;60274;-85
2023/03/05 07:56:35;;;;;;;3.10;2.60;;;;;;;14.27;27.96;100053.80;106661;1253;73610;-87
2023/03/05 07:59:05;;;;;;;6.30;3.90;;;;;;;14.55;27.69;100044.59;106843;1253;64602;-89
2023/03/05 08:01:34;;;;;;;4.70;2.80;;;;;;;14.76;27.34;100051.55;106864;1251;73712;-88
2023/03/05 08:04:04;;;;;;;3.50;2.90;;;;;;;14.89;27.16;100044.84;106747;1251;61366;-89
2023/03/05 08:06:32;;;;;;;5.70;2.80;;;;;;;15.15;27.39;100043.74;107736;1253;60292;-88
2023/03/05 08:09:01;;;;;;;3.60;2.20;;;;;;;15.54;27.15;100048.36;109933;1250;73014;-89
2023/03/05 08:11:29;;;;;;;5.30;3.30;;;;;;;15.87;26.24;100043.33;109181;1250;63493;-86
2023/03/05 08:13:59;;;;;;;10.80;4.90;;;;;;;15.97;25.91;100043.45;109065;1249;73741;-88
2023/03/05 08:16:28;;;;;;;10.00;5.60;;;;;;;16.06;25.57;100042.14;108518;1250;60203;-87
2023/03/05 08:18:58;;;;;;;12.90;4.70;;;;;;;16.09;25.36;100047.48;106780;1251;61635;-85
2023/03/05 08:21:32;;;;;;;8.00;4.20;;;;;;;16.28;25.52;100055.30;106653;1253;74022;-87
2023/03/05 08:24:10;;;;;;;6.50;3.70;;;;;;;16.58;24.75;100055.79;106473;1252;64942;-87
2023/03/05 08:26:40;;;;;;;10.70;3.50;;;;;;;16.49;23.28;100058.36;106476;1252;73318;-87
2023/03/05 08:29:09;;;;;;;6.90;4.40;;;;;;;16.28;22.97;100061.92;106434;1251;60066;-87
2023/03/05 08:31:44;;;;;;;6.10;3.80;;;;;;;16.26;22.79;100062.13;106436;1251;60971;-88
2023/03/05 08:34:13;;;;;;;6.30;3.40;;;;;;;16.40;22.80;100062.26;106284;1251;72410;-87
2023/03/05 08:36:42;;;;;;;8.60;4.80;;;;;;;16.66;22.40;100061.23;106923;1249;64826;-89
2023/03/05 08:39:13;;;;;;;5.80;3.90;;;;;;;16.99;21.87;100066.94;107532;1253;71842;-86
2023/03/05 08:41:42;;;;;;;8.10;3.20;;;;;;;17.32;22.06;100073.19;107116;1254;60179;-90
2023/03/05 08:44:12;;;;;;;7.00;3.40;;;;;;;17.52;21.17;100078.03;107204;1250;61424;-91
2023/03/05 08:46:40;;;;;;;4.60;2.80;;;;;;;17.51;21.40;100079.05;107219;1251;73960;-85
2023/03/05 08:49:11;;;;;;;7.30;3.10;;;;;;;17.51;21.59;100076.23;107774;1253;63008;-87
2023/03/05 08:51:41;;;;;;;6.80;4.30;;;;;;;17.62;21.30;100081.88;108548;1250;71888;-83
2023/03/05 08:54:10;;;;;;;8.60;5.90;;;;;;;17.61;20.84;100081.80;107081;1253;60345;-90
2023/03/05 08:56:43;;;;;;;8.40;4.30;;;;;;;17.60;20.69;100085.42;107236;1251;61331;-89
2023/03/05 08:59:13;;;;;;;10.10;3.90;;;;;;;17.64;20.45;100089.33;106786;1253;72605;-87
2023/03/05 09:01:41;;;;;;;9.70;3.50;;;;;;;17.74;20.00;100084.58;106726;1253;64842;-86
2023/03/05 09:04:12;;;;;;;5.80;4.10;;;;;;;17.67;19.88;100079.24;106601;1251;71618;-88
2023/03/05 09:06:40;;;;;;;8.00;4.20;;;;;;;17.61;21.11;100084.59;106523;1254;61377;-87
2023/03/05 09:09:12;;;;;;;5.40;3.60;;;;;;;17.76;20.65;100080.17;106489;1251;61313;-87
2023/03/05 09:11:41;;;;;;;7.40;3.70;;;;;;;17.95;20.67;100077.07;106517;1253;74496;-90
2023/03/05 09:14:10;;;;;;;7.50;2.80;;;;;;;18.08;20.34;100077.73;106315;1258;64577;-88
2023/03/05 09:16:45;;;;;;;6.80;2.80;;;;;;;17.99;20.49;100075.37;106803;1251;73368;-88
2023/03/05 09:19:14;;;;;;;5.30;2.30;;;;;;;17.94;20.73;100081.92;106781;1251;61144;-89
2023/03/05 09:21:43;;;;;;;4.50;2.70;;;;;;;17.85;19.92;100080.49;106577;1253;60306;-88
2023/03/05 09:24:14;;;;;;;11.70;2.90;;;;;;;17.58;20.05;100085.64;106370;1251;74843;-88
2023/03/05 09:26:44;;;;;;;3.80;2.60;;;;;;;17.57;20.61;100084.42;106889;1251;63667;-84
2023/03/05 09:29:12;;;;;;;5.40;2.70;;;;;;;17.68;20.60;100087.27;106500;1251;72599;-88
2023/03/05 09:31:43;;;;;;;8.50;3.60;;;;;;;17.67;20.30;100086.17;106658;1251;60514;-88
2023/03/05 09:34:17;;;;;;;6.80;3.80;;;;;;;17.61;20.59;100080.02;106783;1251;61275;-87
2023/03/05 09:36:46;;;;;;;7.70;3.50;;;;;;;17.73;20.89;100076.35;106690;1254;74933;-89
2023/03/05 09:39:18;;;;;;;5.80;2.90;;;;;;;18.08;20.89;100081.71;107327;1250;64795;-88
2023/03/05 09:42:02;;;;;;;3.60;2.70;;;;;;;18.37;20.56;100078.11;107520;1256;72693;-89
2023/03/05 09:44:34;;;;;;;7.00;2.80;;;;;;;18.32;19.50;100080.46;107283;1253;60770;-88
2023/03/05 09:47:19;;;;;;;8.20;3.50;;;;;;;18.07;20.00;100076.23;106817;1251;60449;-89
2023/03/05 09:49:51;;;;;;;;;;;;;;;17.95;20.22;100071.76;107083;1253;74785;-87
2023/03/05 09:52:21;;;;;;;4.80;2.40;;;;;;;18.00;20.91;100068.38;107689;1251;63849;-88
2023/03/05 09:54:55;;;;;;;2.50;1.70;;;;;;;18.17;20.34;100071.64;106909;1257;73803;-88
2023/03/05 09:57:38;;;;;;;4.30;1.80;;;;;;;18.32;19.54;100059.35;106471;1251;60475;-88
2023/03/05 10:00:43;;;;;;;5.00;1.50;;;;;;;18.53;20.33;100066.09;108630;1250;61040;-88
2023/03/05 10:03:55;;;;;;;3.90;2.10;;;;;;;18.86;20.10;100062.73;109852;1251;73899;-88
2023/03/05 10:06:25;;;;;;;2.90;1.70;;;;;;;19.05;19.75;100064.31;109905;1250;63758;-86
2023/03/05 10:09:05;;;;;;;2.60;1.30;;;;;;;19.12;19.72;100061.46;109589;1251;72455;-88
2023/03/05 10:11:57;;;;;;;3.90;1.20;;;;;;;19.02;19.53;100062.50;109899;1251;60040;-88
2023/03/05 10:14:31;;;;;;;2.40;1.50;;;;;;;18.70;19.79;100057.77;109928;1250;60278;-90
2023/03/05 10:17:21;;;;;;;2.00;1.60;;;;;;;18.66;20.23;100058.89;109944;1251;73694;-88
2023/03/05 10:20:39;;;;;;;7.10;1.60;;;;;;;18.54;20.45;100054.48;109629;1251;63913;-88
2023/03/05 10:23:23;;;;;;;3.40;1.30;;;;;;;18.55;19.97;100059.49;108833;1263;72503;-87
2023/03/05 10:25:54;;;;;;;3.30;1.30;;;;;;;18.65;20.05;100064.33;108809;1263;60466;-87
2023/03/05 10:28:41;;;;;;;2.20;1.20;;;;;;;18.64;19.71;100061.58;108830;1263;60033;-88
2023/03/05 10:31:37;;;;;;;5.30;1.80;;;;;;;18.45;19.99;100064.95;108922;1263;73588;-87
2023/03/05 10:34:11;;;;;;;3.90;2.20;;;;;;;18.37;20.00;100051.79;107750;1263;63934;-88
2023/03/05 10:37:35;;;;;;;4.00;2.60;;;;;;;18.20;20.10;100058.29;105807;1264;71719;-88
2023/03/05 10:40:11;;;;;;;8.50;3.30;;;;;;;17.96;20.79;100054.26;105569;1273;60395;-89
2023/03/05 10:43:01;;;;;;;4.50;3.10;;;;;;;17.89;20.57;100048.54;105165;1271;62329;-87
2023/03/05 10:45:35;;;;;;;1.60;1.40;;;;;;;17.84;20.35;100048.79;105534;1272;74741;-86
2023/03/05 10:48:15;;;;;;;6.20;1.80;;;;;;;17.66;20.47;100055.66;105858;1271;63531;-87
2023/03/05 10:50:52;;;;;;;1.60;1.50;;;;;;;17.45;21.08;100058.48;107530;1271;73408;-88
2023/03/05 10:53:25;;;;;;;3.10;1.90;;;;;;;17.42;21.27;100058.02;107553;1272;60676;-89
2023/03/05 10:55:55;;;;;;;3.60;2.20;;;;;;;17.38;20.88;100053.47;105400;1271;61534;-88
2023/03/05 10:58:26;;;;;;;4.50;2.50;;;;;;;17.49;21.59;100054.00;105006;1276;75357;-89
2023/03/05 11:01:20;;;;;;;5.40;2.30;;;;;;;17.59;21.42;100049.06;105976;1259;63859;-89
2023/03/05 11:03:54;;;;;;;5.30;3.40;;;;;;;17.50;21.01;100049.98;105998;1260;72562;-87
2023/03/05 11:06:30;;;;;;;7.00;2.80;;;;;;;17.33;21.52;100047.23;105962;1259;61360;-86
2023/03/05 11:09:18;;;;;;;5.50;4.10;;;;;;;17.26;21.84;100047.88;106092;1259;61325;-88
2023/03/05 11:12:16;;;;;;;5.50;3.30;;;;;;;17.32;22.24;100048.17;106781;1263;75023;-86
2023/03/05 11:15:02;;;;;;;5.60;2.90;;;;;;;17.37;21.92;100041.75;107277;1259;64830;-84
2023/03/05 11:17:43;;;;;;;6.20;2.70;;;;;;;17.27;22.14;100039.17;108026;1251;72684;-89
2023/03/05 11:20:24;;;;;;;13.10;8.60;;;;;;;17.16;22.28;100041.98;109742;1251;60292;-88
2023/03/05 11:23:25;;;;;;;45.30;29.70;;;;;;;17.11;22.23;100044.58;108761;1251;60024;-88
2023/03/05 11:26:12;;;;;;;21.10;14.00;;;;;;;16.96;22.27;100044.77;108763;1251;73844;-88
2023/03/05 11:28:50;;;;;;;30.90;18.80;;;;;;;16.79;22.78;100043.04;107064;1256;64857;-87
2023/03/05 11:31:23;;;;;;;3.30;3.00;;;;;;;16.73;22.49;100039.23;107334;1251;72344;-89
2023/03/05 11:33:55;;;;;;;15.90;3.00;;;;;;;16.41;22.39;100028.08;107409;1254;61444;-87
2023/03/05 11:36:32;;;;;;;2.90;1.80;;;;;;;16.19;22.72;100037.58;107933;1251;60795;-88